sensor_id;sensor_type;location;lat;lon;timestamp;pressure;altitude;pressure_sealevel;temperature;humidity
21838;BME280;11081;45.946;6.140;2023-07-30T00:01:16;95199.63;;;20.47;97.66
21838;BME280;11081;45.946;6.140;2023-07-30T00:03:44;95184.56;;;20.43;98.01
21838;BME280;11081;45.946;6.140;2023-07-30T00:06:12;95193.81;;;20.45;97.75
21838;BME280;11081;45.946;6.140;2023-07-30T00:08:42;95195.16;;;20.37;97.80
21838;BME280;11081;45.946;6.140;2023-07-30T00:11:09;95196.50;;;20.35;98.31
21838;BME280;11081;45.946;6.140;2023-07-30T00:13:37;95201.25;;;20.38;98.25
21838;BME280;11081;45.946;6.140;2023-07-30T00:16:05;95198.09;;;20.41;97.91
21838;BME280;11081;45.946;6.140;2023-07-30T00:18:34;95187.50;;;20.41;97.95
21838;BME280;11081;45.946;6.140;2023-07-30T00:21:02;95182.19;;;20.41;97.99
21838;BME280;11081;45.946;6.140;2023-07-30T00:23:29;95167.06;;;20.42;97.74
21838;BME280;11081;45.946;6.140;2023-07-30T00:25:59;95159.34;;;20.40;97.50
21838;BME280;11081;45.946;6.140;2023-07-30T00:28:27;95167.84;;;20.42;97.43
21838;BME280;11081;45.946;6.140;2023-07-30T00:30:55;95171.00;;;20.44;97.29
21838;BME280;11081;45.946;6.140;2023-07-30T00:33:23;95168.66;;;20.43;96.69
21838;BME280;11081;45.946;6.140;2023-07-30T00:35:51;95172.38;;;20.42;96.82
21838;BME280;11081;45.946;6.140;2023-07-30T00:38:19;95170.50;;;20.37;96.66
21838;BME280;11081;45.946;6.140;2023-07-30T00:40:47;95182.44;;;20.10;97.16
21838;BME280;11081;45.946;6.140;2023-07-30T00:43:17;95176.34;;;19.81;99.32
21838;BME280;11081;45.946;6.140;2023-07-30T00:45:45;95191.19;;;19.82;99.87
21838;BME280;11081;45.946;6.140;2023-07-30T00:48:14;95190.00;;;19.93;99.07
21838;BME280;11081;45.946;6.140;2023-07-30T00:50:42;95182.53;;;20.00;98.30
21838;BME280;11081;45.946;6.140;2023-07-30T00:53:14;95181.97;;;20.03;97.99
21838;BME280;11081;45.946;6.140;2023-07-30T00:55:42;95184.34;;;20.05;97.57
21838;BME280;11081;45.946;6.140;2023-07-30T00:58:11;95192.59;;;20.03;97.01
21838;BME280;11081;45.946;6.140;2023-07-30T01:00:41;95189.09;;;20.08;96.94
21838;BME280;11081;45.946;6.140;2023-07-30T01:03:09;95187.75;;;20.10;96.73
21838;BME280;11081;45.946;6.140;2023-07-30T01:05:37;95183.50;;;20.09;96.64
21838;BME280;11081;45.946;6.140;2023-07-30T01:08:05;95191.47;;;20.09;96.65
21838;BME280;11081;45.946;6.140;2023-07-30T01:10:35;95183.00;;;20.07;96.33
21838;BME280;11081;45.946;6.140;2023-07-30T01:13:03;95184.59;;;20.08;96.18
21838;BME280;11081;45.946;6.140;2023-07-30T01:15:32;95185.88;;;20.11;96.23
21838;BME280;11081;45.946;6.140;2023-07-30T01:18:02;95190.16;;;20.07;96.12
21838;BME280;11081;45.946;6.140;2023-07-30T01:20:30;95198.69;;;19.99;96.30
21838;BME280;11081;45.946;6.140;2023-07-30T01:23:00;95196.88;;;19.99;96.64
21838;BME280;11081;45.946;6.140;2023-07-30T01:25:29;95206.91;;;20.02;96.29
21838;BME280;11081;45.946;6.140;2023-07-30T01:28:00;95208.47;;;20.03;96.15
21838;BME280;11081;45.946;6.140;2023-07-30T01:30:31;95212.72;;;20.04;96.23
21838;BME280;11081;45.946;6.140;2023-07-30T01:33:01;95204.75;;;20.04;96.34
21838;BME280;11081;45.946;6.140;2023-07-30T01:35:30;95207.69;;;20.03;96.58
21838;BME280;11081;45.946;6.140;2023-07-30T01:38:01;95201.59;;;20.02;96.70
21838;BME280;11081;45.946;6.140;2023-07-30T01:40:32;95202.69;;;20.01;96.94
21838;BME280;11081;45.946;6.140;2023-07-30T01:43:00;95196.31;;;20.02;96.72
21838;BME280;11081;45.946;6.140;2023-07-30T01:45:28;95201.59;;;20.02;96.85
21838;BME280;11081;45.946;6.140;2023-07-30T01:47:56;95202.41;;;20.03;96.92
21838;BME280;11081;45.946;6.140;2023-07-30T01:50:24;95194.16;;;20.04;97.29
21838;BME280;11081;45.946;6.140;2023-07-30T01:52:52;95198.91;;;20.07;96.98
21838;BME280;11081;45.946;6.140;2023-07-30T01:55:22;95198.63;;;20.09;97.13
21838;BME280;11081;45.946;6.140;2023-07-30T01:57:50;95196.25;;;20.07;97.42
21838;BME280;11081;45.946;6.140;2023-07-30T02:00:18;95189.88;;;20.08;97.53
21838;BME280;11081;45.946;6.140;2023-07-30T02:02:46;95184.03;;;20.12;97.89
21838;BME280;11081;45.946;6.140;2023-07-30T02:05:14;95185.59;;;20.13;98.23
21838;BME280;11081;45.946;6.140;2023-07-30T02:07:44;95184.03;;;20.12;98.65
21838;BME280;11081;45.946;6.140;2023-07-30T02:10:12;95189.31;;;20.12;98.52
21838;BME280;11081;45.946;6.140;2023-07-30T02:12:41;95194.06;;;20.15;98.56
21838;BME280;11081;45.946;6.140;2023-07-30T02:15:09;95192.47;;;20.14;98.20
21838;BME280;11081;45.946;6.140;2023-07-30T02:17:38;95201.59;;;20.02;98.78
21838;BME280;11081;45.946;6.140;2023-07-30T02:20:08;95205.84;;;20.03;98.75
21838;BME280;11081;45.946;6.140;2023-07-30T02:22:36;95199.47;;;20.04;98.52
21838;BME280;11081;45.946;6.140;2023-07-30T02:25:05;95203.63;;;20.10;98.61
21838;BME280;11081;45.946;6.140;2023-07-30T02:27:33;95194.63;;;20.12;98.72
21838;BME280;11081;45.946;6.140;2023-07-30T02:30:03;95190.91;;;20.13;98.68
21838;BME280;11081;45.946;6.140;2023-07-30T02:32:31;95184.31;;;20.10;98.72
21838;BME280;11081;45.946;6.140;2023-07-30T02:34:59;95185.66;;;20.07;98.84
21838;BME280;11081;45.946;6.140;2023-07-30T02:37:27;95203.13;;;20.08;98.96
21838;BME280;11081;45.946;6.140;2023-07-30T02:39:55;95198.91;;;20.07;98.58
21838;BME280;11081;45.946;6.140;2023-07-30T02:42:23;95195.19;;;20.08;98.60
21838;BME280;11081;45.946;6.140;2023-07-30T02:44:51;95188.31;;;20.07;98.93
21838;BME280;11081;45.946;6.140;2023-07-30T02:47:21;95193.84;;;20.11;98.74
21838;BME280;11081;45.946;6.140;2023-07-30T02:49:49;95187.19;;;20.14;98.75
21838;BME280;11081;45.946;6.140;2023-07-30T02:52:17;95181.88;;;20.14;98.69
21838;BME280;11081;45.946;6.140;2023-07-30T02:54:45;95189.25;;;20.17;98.42
21838;BME280;11081;45.946;6.140;2023-07-30T02:57:13;95193.50;;;20.18;98.24
21838;BME280;11081;45.946;6.140;2023-07-30T02:59:41;95192.44;;;20.19;97.98
21838;BME280;11081;45.946;6.140;2023-07-30T03:02:09;95192.97;;;20.21;98.04
21838;BME280;11081;45.946;6.140;2023-07-30T03:04:38;95187.13;;;20.19;98.14
21838;BME280;11081;45.946;6.140;2023-07-30T03:07:08;95181.66;;;20.10;98.27
21838;BME280;11081;45.946;6.140;2023-07-30T03:09:37;95186.72;;;20.06;98.84
21838;BME280;11081;45.946;6.140;2023-07-30T03:12:05;95193.84;;;20.11;98.83
21838;BME280;11081;45.946;6.140;2023-07-30T03:14:34;95196.75;;;20.09;98.86
21838;BME280;11081;45.946;6.140;2023-07-30T03:17:03;95183.56;;;20.04;98.87
21838;BME280;11081;45.946;6.140;2023-07-30T03:19:32;95175.09;;;20.02;99.12
21838;BME280;11081;45.946;6.140;2023-07-30T03:22:01;95181.41;;;20.06;98.85
21838;BME280;11081;45.946;6.140;2023-07-30T03:24:29;95192.25;;;20.10;98.82
21838;BME280;11081;45.946;6.140;2023-07-30T03:26:57;95194.63;;;20.12;98.73
21838;BME280;11081;45.946;6.140;2023-07-30T03:29:25;95186.16;;;20.09;98.83
21838;BME280;11081;45.946;6.140;2023-07-30T03:31:53;95186.72;;;20.06;98.81
21838;BME280;11081;45.946;6.140;2023-07-30T03:34:21;95198.91;;;20.07;98.59
21838;BME280;11081;45.946;6.140;2023-07-30T03:36:49;95197.31;;;20.06;98.54
21838;BME280;11081;45.946;6.140;2023-07-30T03:39:18;95197.31;;;20.06;98.39
21838;BME280;11081;45.946;6.140;2023-07-30T03:41:46;95201.56;;;20.07;98.34
21838;BME280;11081;45.946;6.140;2023-07-30T03:44:14;95208.47;;;20.03;98.22
21838;BME280;11081;45.946;6.140;2023-07-30T03:46:43;95198.47;;;19.95;98.56
21838;BME280;11081;45.946;6.140;2023-07-30T03:49:12;95200.31;;;19.95;98.93
21838;BME280;11081;45.946;6.140;2023-07-30T03:51:40;95198.97;;;19.97;98.95
21838;BME280;11081;45.946;6.140;2023-07-30T03:54:08;95190.75;;;19.99;99.08
21838;BME280;11081;45.946;6.140;2023-07-30T03:56:37;95191.03;;;19.97;98.97
21838;BME280;11081;45.946;6.140;2023-07-30T03:59:05;95198.97;;;19.97;98.83
21838;BME280;11081;45.946;6.140;2023-07-30T04:01:33;95195.25;;;19.98;98.65
21838;BME280;11081;45.946;6.140;2023-07-30T04:04:02;95195.78;;;20.00;98.62
21838;BME280;11081;45.946;6.140;2023-07-30T04:06:30;95199.53;;;19.99;98.37
21838;BME280;11081;45.946;6.140;2023-07-30T04:08:59;95207.47;;;19.99;98.14
21838;BME280;11081;45.946;6.140;2023-07-30T04:11:27;95200.56;;;19.98;98.04
21838;BME280;11081;45.946;6.140;2023-07-30T04:13:57;95204.28;;;19.97;97.98
21838;BME280;11081;45.946;6.140;2023-07-30T04:16:25;95206.97;;;19.92;98.29
21838;BME280;11081;45.946;6.140;2023-07-30T04:18:53;95202.22;;;19.89;98.36
21838;BME280;11081;45.946;6.140;2023-07-30T04:21:21;95198.53;;;19.90;98.44
21838;BME280;11081;45.946;6.140;2023-07-30T04:23:49;95200.09;;;19.91;98.34
21838;BME280;11081;45.946;6.140;2023-07-30T04:26:17;95206.19;;;19.92;98.24
21838;BME280;11081;45.946;6.140;2023-07-30T04:28:45;95212.84;;;19.89;98.41
21838;BME280;11081;45.946;6.140;2023-07-30T04:31:15;95216.09;;;19.81;98.78
21838;BME280;11081;45.946;6.140;2023-07-30T04:33:43;95227.75;;;19.80;98.96
21838;BME280;11081;45.946;6.140;2023-07-30T04:36:11;95224.06;;;19.76;99.04
21838;BME280;11081;45.946;6.140;2023-07-30T04:38:39;95228.88;;;19.69;99.33
21838;BME280;11081;45.946;6.140;2023-07-30T04:41:07;95232.69;;;19.58;100.00
21838;BME280;11081;45.946;6.140;2023-07-30T04:43:41;95233.16;;;19.65;100.00
21838;BME280;11081;45.946;6.140;2023-07-30T04:46:09;95239.94;;;19.76;100.00
21838;BME280;11081;45.946;6.140;2023-07-30T04:48:40;95236.72;;;19.84;99.27
21838;BME280;11081;45.946;6.140;2023-07-30T04:51:09;95246.28;;;19.80;99.80
21838;BME280;11081;45.946;6.140;2023-07-30T04:53:37;95241.00;;;19.80;100.00
21838;BME280;11081;45.946;6.140;2023-07-30T04:56:06;95243.03;;;19.88;100.00
21838;BME280;11081;45.946;6.140;2023-07-30T04:58:34;95236.13;;;19.92;99.78
21838;BME280;11081;45.946;6.140;2023-07-30T05:01:02;95247.22;;;19.94;99.93
21838;BME280;11081;45.946;6.140;2023-07-30T05:03:30;95250.41;;;19.96;99.56
21838;BME280;11081;45.946;6.140;2023-07-30T05:05:59;95250.41;;;19.96;99.46
21838;BME280;11081;45.946;6.140;2023-07-30T05:08:27;95253.56;;;19.98;99.60
21838;BME280;11081;45.946;6.140;2023-07-30T05:10:55;95257.81;;;19.94;99.63
21838;BME280;11081;45.946;6.140;2023-07-30T05:13:23;95259.41;;;19.95;99.40
21838;BME280;11081;45.946;6.140;2023-07-30T05:15:51;95258.34;;;19.96;99.37
21838;BME280;11081;45.946;6.140;2023-07-30T05:18:19;95258.84;;;19.98;99.64
21838;BME280;11081;45.946;6.140;2023-07-30T05:20:47;95272.09;;;19.98;99.54
21838;BME280;11081;45.946;6.140;2023-07-30T05:23:16;95265.03;;;19.89;100.00
21838;BME280;11081;45.946;6.140;2023-07-30T05:25:44;95268.00;;;19.77;100.00
21838;BME280;11081;45.946;6.140;2023-07-30T05:28:12;95277.03;;;19.76;100.00
21838;BME280;11081;45.946;6.140;2023-07-30T05:30:40;95274.41;;;19.71;100.00
21838;BME280;11081;45.946;6.140;2023-07-30T05:33:08;95283.97;;;19.67;100.00
21838;BME280;11081;45.946;6.140;2023-07-30T05:35:38;95282.41;;;19.66;100.00
21838;BME280;11081;45.946;6.140;2023-07-30T05:38:06;95283.75;;;19.63;100.00
21838;BME280;11081;45.946;6.140;2023-07-30T05:40:35;95286.13;;;19.65;100.00
21838;BME280;11081;45.946;6.140;2023-07-30T05:43:05;95279.25;;;19.64;100.00
21838;BME280;11081;45.946;6.140;2023-07-30T05:45:34;95290.59;;;19.69;100.00
21838;BME280;11081;45.946;6.140;2023-07-30T05:48:02;95298.28;;;19.66;100.00
21838;BME280;11081;45.946;6.140;2023-07-30T05:50:30;95306.28;;;19.50;100.00
21838;BME280;11081;45.946;6.140;2023-07-30T05:52:58;95305.25;;;19.46;100.00
21838;BME280;11081;45.946;6.140;2023-07-30T05:55:26;95299.50;;;19.29;100.00
21838;BME280;11081;45.946;6.140;2023-07-30T05:57:56;95301.13;;;19.20;100.00
21838;BME280;11081;45.946;6.140;2023-07-30T06:00:24;95292.59;;;19.33;100.00
21838;BME280;11081;45.946;6.140;2023-07-30T06:02:52;95294.34;;;19.53;100.00
21838;BME280;11081;45.946;6.140;2023-07-30T06:05:20;95299.84;;;19.72;100.00
21838;BME280;11081;45.946;6.140;2023-07-30T06:07:48;95295.28;;;19.77;100.00
21838;BME280;11081;45.946;6.140;2023-07-30T06:10:16;95304.56;;;19.80;100.00
21838;BME280;11081;45.946;6.140;2023-07-30T06:12:44;95308.81;;;19.76;100.00
21838;BME280;11081;45.946;6.140;2023-07-30T06:15:13;95312.59;;;19.65;100.00
21838;BME280;11081;45.946;6.140;2023-07-30T06:17:41;95321.13;;;19.46;100.00
21838;BME280;11081;45.946;6.140;2023-07-30T06:20:11;95326.19;;;19.43;100.00
21838;BME280;11081;45.946;6.140;2023-07-30T06:22:39;95316.94;;;19.40;100.00
21838;BME280;11081;45.946;6.140;2023-07-30T06:25:17;95315.84;;;19.46;100.00
21838;BME280;11081;45.946;6.140;2023-07-30T06:27:45;95315.28;;;19.60;100.00
21838;BME280;11081;45.946;6.140;2023-07-30T06:30:15;95322.72;;;19.58;100.00
21838;BME280;11081;45.946;6.140;2023-07-30T06:32:43;95327.47;;;19.61;100.00
21838;BME280;11081;45.946;6.140;2023-07-30T06:35:11;95339.09;;;19.65;100.00
21838;BME280;11081;45.946;6.140;2023-07-30T06:37:39;95331.09;;;19.70;100.00
21838;BME280;11081;45.946;6.140;2023-07-30T06:40:08;95331.59;;;19.77;100.00
21838;BME280;11081;45.946;6.140;2023-07-30T06:42:36;95338.00;;;19.71;100.00
21838;BME280;11081;45.946;6.140;2023-07-30T06:45:05;95344.81;;;19.82;100.00
21838;BME280;11081;45.946;6.140;2023-07-30T06:47:34;95334.13;;;19.97;100.00
21838;BME280;11081;45.946;6.140;2023-07-30T06:50:03;95326.66;;;20.04;100.00
21838;BME280;11081;45.946;6.140;2023-07-30T06:52:31;95339.31;;;20.13;100.00
21838;BME280;11081;45.946;6.140;2023-07-30T06:55:00;95323.09;;;20.19;100.00
21838;BME280;11081;45.946;6.140;2023-07-30T06:57:29;95324.06;;;20.33;99.97
21838;BME280;11081;45.946;6.140;2023-07-30T06:59:57;95319.97;;;20.51;99.42
21838;BME280;11081;45.946;6.140;2023-07-30T07:02:25;95326.28;;;20.55;99.07
21838;BME280;11081;45.946;6.140;2023-07-30T07:04:55;95327.31;;;20.59;99.30
21838;BME280;11081;45.946;6.140;2023-07-30T07:07:23;95333.22;;;20.51;99.66
21838;BME280;11081;45.946;6.140;2023-07-30T07:09:51;95337.94;;;20.59;99.38
21838;BME280;11081;45.946;6.140;2023-07-30T07:12:19;95332.50;;;20.75;98.14
21838;BME280;11081;45.946;6.140;2023-07-30T07:14:47;95343.06;;;20.80;98.06
21838;BME280;11081;45.946;6.140;2023-07-30T07:17:15;95339.88;;;20.78;97.66
21838;BME280;11081;45.946;6.140;2023-07-30T07:19:43;95338.78;;;20.84;97.44
21838;BME280;11081;45.946;6.140;2023-07-30T07:22:14;95338.09;;;20.97;97.43
21838;BME280;11081;45.946;6.140;2023-07-30T07:24:44;95332.94;;;21.11;96.49
21838;BME280;11081;45.946;6.140;2023-07-30T07:27:13;95324.13;;;21.15;96.77
21838;BME280;11081;45.946;6.140;2023-07-30T07:29:41;95322.97;;;21.21;96.69
21838;BME280;11081;45.946;6.140;2023-07-30T07:32:09;95330.94;;;21.26;96.91
21838;BME280;11081;45.946;6.140;2023-07-30T07:34:37;95334.97;;;21.43;96.05
21838;BME280;11081;45.946;6.140;2023-07-30T07:37:05;95345.38;;;21.39;95.48
21838;BME280;11081;45.946;6.140;2023-07-30T07:39:34;95326.69;;;21.25;95.26
21838;BME280;11081;45.946;6.140;2023-07-30T07:42:03;95319.81;;;21.19;95.69
21838;BME280;11081;45.946;6.140;2023-07-30T07:44:31;95339.53;;;21.13;94.54
21838;BME280;11081;45.946;6.140;2023-07-30T07:46:59;95330.44;;;21.19;94.88
21838;BME280;11081;45.946;6.140;2023-07-30T07:49:27;95332.53;;;21.22;94.62
21838;BME280;11081;45.946;6.140;2023-07-30T07:51:55;95331.38;;;21.34;93.10
21838;BME280;11081;45.946;6.140;2023-07-30T07:54:23;95344.16;;;21.32;92.20
21838;BME280;11081;45.946;6.140;2023-07-30T07:56:52;95341.56;;;21.26;91.39
21838;BME280;11081;45.946;6.140;2023-07-30T07:59:20;95346.75;;;21.37;91.30
21838;BME280;11081;45.946;6.140;2023-07-30T08:01:48;95345.34;;;21.63;90.76
21838;BME280;11081;45.946;6.140;2023-07-30T08:04:17;95350.19;;;21.80;89.99
21838;BME280;11081;45.946;6.140;2023-07-30T08:06:45;95366.22;;;21.94;90.94
21838;BME280;11081;45.946;6.140;2023-07-30T08:09:13;95349.03;;;22.10;91.30
21838;BME280;11081;45.946;6.140;2023-07-30T08:11:41;95355.53;;;22.17;90.94
21838;BME280;11081;45.946;6.140;2023-07-30T08:14:10;95355.84;;;22.16;87.28
21838;BME280;11081;45.946;6.140;2023-07-30T08:16:38;95366.94;;;21.99;84.95
21838;BME280;11081;45.946;6.140;2023-07-30T08:19:06;95365.34;;;21.79;84.03
21838;BME280;11081;45.946;6.140;2023-07-30T08:21:34;95373.38;;;21.74;85.20
21838;BME280;11081;45.946;6.140;2023-07-30T08:24:03;95373.38;;;21.74;85.34
21838;BME280;11081;45.946;6.140;2023-07-30T08:26:32;95362.75;;;21.74;85.52
21838;BME280;11081;45.946;6.140;2023-07-30T08:29:00;95351.69;;;21.67;84.66
21838;BME280;11081;45.946;6.140;2023-07-30T08:31:29;95365.59;;;21.59;84.57
21838;BME280;11081;45.946;6.140;2023-07-30T08:33:58;95352.66;;;21.52;84.63
21838;BME280;11081;45.946;6.140;2023-07-30T08:36:26;95360.50;;;21.63;85.32
21838;BME280;11081;45.946;6.140;2023-07-30T08:38:53;95363.44;;;21.61;86.29
21838;BME280;11081;45.946;6.140;2023-07-30T08:41:21;95367.97;;;21.60;85.21
21838;BME280;11081;45.946;6.140;2023-07-30T08:43:49;95364.44;;;21.65;84.00
21838;BME280;11081;45.946;6.140;2023-07-30T08:46:19;95362.06;;;21.87;83.25
21838;BME280;11081;45.946;6.140;2023-07-30T08:48:48;95362.81;;;21.69;84.38
21838;BME280;11081;45.946;6.140;2023-07-30T08:51:17;95361.53;;;21.43;86.39
21838;BME280;11081;45.946;6.140;2023-07-30T08:53:47;95355.34;;;21.28;87.65
21838;BME280;11081;45.946;6.140;2023-07-30T08:56:15;95350.53;;;21.30;87.15
21838;BME280;11081;45.946;6.140;2023-07-30T08:58:44;95357.22;;;21.28;88.20
21838;BME280;11081;45.946;6.140;2023-07-30T09:01:14;95363.13;;;21.44;87.97
21838;BME280;11081;45.946;6.140;2023-07-30T09:03:48;95355.03;;;21.54;86.98
21838;BME280;11081;45.946;6.140;2023-07-30T09:06:18;95357.25;;;21.47;85.76
21838;BME280;11081;45.946;6.140;2023-07-30T09:08:45;95355.31;;;21.52;85.10
21838;BME280;11081;45.946;6.140;2023-07-30T09:11:13;95359.03;;;21.75;85.46
21838;BME280;11081;45.946;6.140;2023-07-30T09:13:41;95359.03;;;21.75;85.10
21838;BME280;11081;45.946;6.140;2023-07-30T09:16:10;95365.16;;;21.52;86.01
21838;BME280;11081;45.946;6.140;2023-07-30T09:18:40;95362.81;;;21.26;85.55
21838;BME280;11081;45.946;6.140;2023-07-30T09:21:09;95364.22;;;21.14;83.83
21838;BME280;11081;45.946;6.140;2023-07-30T09:23:41;95366.16;;;21.08;83.35
21838;BME280;11081;45.946;6.140;2023-07-30T09:26:10;95353.31;;;21.15;83.50
21838;BME280;11081;45.946;6.140;2023-07-30T09:28:39;95351.69;;;21.24;83.13
21838;BME280;11081;45.946;6.140;2023-07-30T09:31:08;95349.88;;;21.15;82.60
21838;BME280;11081;45.946;6.140;2023-07-30T09:33:48;95350.66;;;21.15;81.25
21838;BME280;11081;45.946;6.140;2023-07-30T09:36:19;95349.66;;;21.11;81.02
21838;BME280;11081;45.946;6.140;2023-07-30T09:38:47;95351.69;;;21.24;82.38
21838;BME280;11081;45.946;6.140;2023-07-30T09:41:16;95363.56;;;21.51;80.60
21838;BME280;11081;45.946;6.140;2023-07-30T09:43:44;95365.03;;;21.38;81.46
21838;BME280;11081;45.946;6.140;2023-07-30T09:46:12;95375.00;;;21.27;81.73
21838;BME280;11081;45.946;6.140;2023-07-30T09:48:40;95376.13;;;21.16;82.21
21838;BME280;11081;45.946;6.140;2023-07-30T09:51:08;95374.63;;;21.10;82.32
21838;BME280;11081;45.946;6.140;2023-07-30T09:53:38;95373.13;;;20.99;82.15
21838;BME280;11081;45.946;6.140;2023-07-30T09:56:06;95377.41;;;20.95;82.99
21838;BME280;11081;45.946;6.140;2023-07-30T09:58:35;95376.91;;;20.93;82.12
21838;BME280;11081;45.946;6.140;2023-07-30T10:01:05;95377.41;;;20.95;81.83
21838;BME280;11081;45.946;6.140;2023-07-30T10:03:35;95381.09;;;20.99;81.77
21838;BME280;11081;45.946;6.140;2023-07-30T10:06:03;95377.66;;;21.22;82.51
21838;BME280;11081;45.946;6.140;2023-07-30T10:08:39;95387.09;;;21.39;79.74
21838;BME280;11081;45.946;6.140;2023-07-30T10:11:08;95389.91;;;21.47;79.27
21838;BME280;11081;45.946;6.140;2023-07-30T10:13:37;95376.91;;;21.70;77.55
21838;BME280;11081;45.946;6.140;2023-07-30T10:16:09;95374.25;;;21.70;76.95
21838;BME280;11081;45.946;6.140;2023-07-30T10:18:38;95387.59;;;21.83;76.81
21838;BME280;11081;45.946;6.140;2023-07-30T10:21:07;95385.44;;;21.85;75.88
21838;BME280;11081;45.946;6.140;2023-07-30T10:23:35;95386.91;;;21.97;76.41
21838;BME280;11081;45.946;6.140;2023-07-30T10:26:10;95378.44;;;21.95;73.55
21838;BME280;11081;45.946;6.140;2023-07-30T10:28:38;95389.50;;;22.02;74.42
21838;BME280;11081;45.946;6.140;2023-07-30T10:31:10;95381.44;;;22.12;75.42
21838;BME280;11081;45.946;6.140;2023-07-30T10:33:44;95368.56;;;22.19;73.72
21838;BME280;11081;45.946;6.140;2023-07-30T10:36:12;95379.78;;;22.16;73.53
21838;BME280;11081;45.946;6.140;2023-07-30T10:38:41;95376.16;;;22.07;73.82
21838;BME280;11081;45.946;6.140;2023-07-30T10:41:13;95372.28;;;22.18;72.46
21838;BME280;11081;45.946;6.140;2023-07-30T10:43:46;95375.72;;;22.37;71.22
21838;BME280;11081;45.946;6.140;2023-07-30T10:46:15;95381.13;;;22.51;71.74
21838;BME280;11081;45.946;6.140;2023-07-30T10:48:45;95380.34;;;22.50;70.57
21838;BME280;11081;45.946;6.140;2023-07-30T10:51:14;95377.16;;;22.48;70.88
21838;BME280;11081;45.946;6.140;2023-07-30T10:53:43;95380.97;;;22.42;70.34
21838;BME280;11081;45.946;6.140;2023-07-30T10:56:15;95373.50;;;22.07;71.27
21838;BME280;11081;45.946;6.140;2023-07-30T10:58:49;95373.00;;;22.05;70.85
21838;BME280;11081;45.946;6.140;2023-07-30T11:01:17;95376.28;;;21.97;70.73
21838;BME280;11081;45.946;6.140;2023-07-30T11:03:48;95365.41;;;22.17;69.57
21838;BME280;11081;45.946;6.140;2023-07-30T11:06:21;95363.50;;;22.36;69.76
21838;BME280;11081;45.946;6.140;2023-07-30T11:08:50;95363.44;;;22.41;70.00
21838;BME280;11081;45.946;6.140;2023-07-30T11:11:20;95364.59;;;22.35;69.94
21838;BME280;11081;45.946;6.140;2023-07-30T11:13:51;95357.47;;;22.49;68.65
21838;BME280;11081;45.946;6.140;2023-07-30T11:16:19;95355.03;;;22.67;68.65
21838;BME280;11081;45.946;6.140;2023-07-30T11:18:47;95365.69;;;22.67;68.99
21838;BME280;11081;45.946;6.140;2023-07-30T11:21:16;95363.44;;;22.74;68.96
21838;BME280;11081;45.946;6.140;2023-07-30T11:23:45;95359.97;;;22.92;68.22
21838;BME280;11081;45.946;6.140;2023-07-30T11:26:15;95368.25;;;23.04;67.11
21838;BME280;11081;45.946;6.140;2023-07-30T11:28:46;95370.75;;;23.15;66.86
21838;BME280;11081;45.946;6.140;2023-07-30T11:31:16;95378.09;;;22.90;66.99
21838;BME280;11081;45.946;6.140;2023-07-30T11:33:47;95358.88;;;22.61;67.09
21838;BME280;11081;45.946;6.140;2023-07-30T11:36:18;95363.50;;;22.69;68.00
21838;BME280;11081;45.946;6.140;2023-07-30T11:38:46;95365.63;;;22.72;68.16
21838;BME280;11081;45.946;6.140;2023-07-30T11:41:15;95363.69;;;22.59;67.52
21838;BME280;11081;45.946;6.140;2023-07-30T11:43:44;95361.41;;;22.52;67.41
21838;BME280;11081;45.946;6.140;2023-07-30T11:46:14;95355.31;;;22.51;66.51
21838;BME280;11081;45.946;6.140;2023-07-30T11:48:44;95360.66;;;22.65;66.35
21838;BME280;11081;45.946;6.140;2023-07-30T11:51:20;95364.50;;;23.05;66.78
21838;BME280;11081;45.946;6.140;2023-07-30T11:53:50;95362.34;;;23.07;65.46
21838;BME280;11081;45.946;6.140;2023-07-30T11:56:20;95367.66;;;23.07;66.37
21838;BME280;11081;45.946;6.140;2023-07-30T11:58:49;95360.19;;;23.23;66.58
21838;BME280;11081;45.946;6.140;2023-07-30T12:01:19;95356.97;;;23.40;65.27
21838;BME280;11081;45.946;6.140;2023-07-30T12:03:47;95355.47;;;23.48;62.33
21838;BME280;11081;45.946;6.140;2023-07-30T12:06:15;95355.09;;;23.54;61.86
21838;BME280;11081;45.946;6.140;2023-07-30T12:08:43;95355.50;;;23.61;60.84
21838;BME280;11081;45.946;6.140;2023-07-30T12:11:11;95351.31;;;23.69;60.80
21838;BME280;11081;45.946;6.140;2023-07-30T12:13:43;95358.53;;;23.68;61.89
21838;BME280;11081;45.946;6.140;2023-07-30T12:16:13;95358.84;;;23.81;60.30
21838;BME280;11081;45.946;6.140;2023-07-30T12:18:45;95353.88;;;23.88;59.38
21838;BME280;11081;45.946;6.140;2023-07-30T12:21:13;95351.09;;;23.93;60.01
21838;BME280;11081;45.946;6.140;2023-07-30T12:23:41;95351.59;;;23.95;59.93
21838;BME280;11081;45.946;6.140;2023-07-30T12:26:09;95355.25;;;23.99;57.91
21838;BME280;11081;45.946;6.140;2023-07-30T12:28:37;95344.38;;;23.95;58.53
21838;BME280;11081;45.946;6.140;2023-07-30T12:31:05;95339.31;;;23.94;57.96
21838;BME280;11081;45.946;6.140;2023-07-30T12:33:33;95340.22;;;24.03;56.98
21838;BME280;11081;45.946;6.140;2023-07-30T12:36:03;95336.88;;;23.97;56.50
21838;BME280;11081;45.946;6.140;2023-07-30T12:38:31;95348.69;;;24.05;56.92
21838;BME280;11081;45.946;6.140;2023-07-30T12:41:01;95331.31;;;23.94;56.48
21838;BME280;11081;45.946;6.140;2023-07-30T12:43:29;95334.13;;;23.89;56.71
21838;BME280;11081;45.946;6.140;2023-07-30T12:45:57;95336.44;;;24.04;57.53
21838;BME280;11081;45.946;6.140;2023-07-30T12:48:25;95336.16;;;24.28;57.75
21838;BME280;11081;45.946;6.140;2023-07-30T12:50:53;95324.88;;;24.45;54.85
21838;BME280;11081;45.946;6.140;2023-07-30T12:53:25;95336.00;;;24.24;53.68
21838;BME280;11081;45.946;6.140;2023-07-30T12:55:53;95352.88;;;24.33;54.03
21838;BME280;11081;45.946;6.140;2023-07-30T12:58:21;95339.75;;;24.37;53.18
21838;BME280;11081;45.946;6.140;2023-07-30T13:00:49;95342.19;;;24.33;51.05
21838;BME280;11081;45.946;6.140;2023-07-30T13:03:17;95346.88;;;24.14;50.64
21838;BME280;11081;45.946;6.140;2023-07-30T13:05:45;95343.13;;;24.15;50.06
21838;BME280;11081;45.946;6.140;2023-07-30T13:08:13;95338.66;;;24.24;49.13